Terminal Aerodrome Forecast
Issued by NWS

Home | Current Version | Previous Version | Text Only | Print | Product List | Glossary On
Versions: 1 2 3 4 5 6 7 8 9 10 11 12 13 14 15 16 17 18 19 20 21 22
000
FTUS41 KBOX 250323 AAA
TAFACK
TAF AMD
KACK 250323Z 2503/2524 18009KT 1 1/2SM BR OVC001
     FM250600 17008KT 1/2SM FG OVC001
     FM251400 14012G21KT 5SM BR BKN020
     FM251600 14014G22KT P6SM BKN020
     FM252100 13015G27KT 1SM BR OVC001
     FM252300 13011G26KT 1 1/2SM BR VCSH OVC001=

USA.gov is the U.S. government's official web portal to all federal, state and local government web resources and services.